KHSP/HSP METAR and TAF weather

Enter ICAO airport designator
Station Type Date Time Source
KHSP METAR 2020/11/27 02:55 UTC NOAA

KHSP 270255Z AUTO 16003KT 7SM CLR 11/06 A3011 RMK AO2 T01080058


Station Type Date Time Source
KHSP Decoded METAR 2020/11/27 02:55 UTC NOAA

Hot Springs / Ingalls, VA, United States (KHSP) 37-57N 079-50W
Nov 26, 2020 - 09:55 PM EST / 2020.11.27 0255 UTC
Wind: from the SSE (160 degrees) at 3 MPH (3 KT):0
Visibility: 7 mile(s):0
Sky conditions: clear
Temperature: 51.4 F (10.8 C)
Dew Point: 42.4 F (5.8 C)
Relative Humidity: 71%
Pressure (altimeter): 30.11 in. Hg (1019 hPa)
ob: KHSP 270255Z AUTO 16003KT 7SM CLR 11/06 A3011 RMK AO2 T01080058
cycle: 3

Station Type Date Time Source
KHSP TAF UTC NOAA

Error!

Example: see airport list